Time;durP1;ratioP1;P1;durP2;ratioP2;P2;SDS_P1;SDS_P2;PMS_P1;PMS_P2;Temp;Humidity;BMP_temperature;BMP_pressure;BME280_temperature;BME280_humidity;BME280_pressure;Samples;Min_cycle;Max_cycle;Signal;HPM_P1;HPM_P2
2024/02/29 00:00:36;;;;;;;14.67;12.10;;;7.90;99.90;;;;;;5091732;28;20175;-63
2024/02/29 00:03:02;;;;;;;15.83;10.03;;;8.00;99.90;;;;;;5091910;28;20982;-62
2024/02/29 00:05:28;;;;;;;14.87;10.50;;;8.00;99.70;;;;;;5091903;28;20403;-62
2024/02/29 00:07:54;;;;;;;16.90;11.90;;;8.00;99.70;;;;;;5091557;28;20180;-62
2024/02/29 00:10:20;;;;;;;14.57;10.07;;;7.90;99.90;;;;;;5091853;28;20206;-63
2024/02/29 00:12:45;;;;;;;15.47;11.30;;;7.80;99.90;;;;;;5073626;28;20188;-63
2024/02/29 00:15:11;;;;;;;13.07;10.43;;;7.90;99.90;;;;;;5091789;28;20624;-63
2024/02/29 00:17:37;;;;;;;13.25;9.75;;;7.90;99.90;;;;;;5091672;28;20483;-63
2024/02/29 00:20:04;;;;;;;13.67;9.27;;;7.90;99.90;;;;;;5091711;28;20543;-63
2024/02/29 00:22:30;;;;;;;17.83;9.05;;;7.80;99.90;;;;;;5091552;28;20694;-63
2024/02/29 00:24:55;;;;;;;13.37;10.90;;;7.70;99.90;;;;;;5091790;28;20207;-63
2024/02/29 00:27:21;;;;;;;12.90;8.60;;;7.80;99.90;;;;;;5091309;28;20172;-63
2024/02/29 00:29:47;;;;;;;10.55;8.90;;;7.80;99.90;;;;;;5091519;28;20204;-63
2024/02/29 00:32:13;;;;;;;18.27;9.93;;;7.80;99.90;;;;;;5091533;28;20326;-62
2024/02/29 00:34:38;;;;;;;12.67;9.30;;;7.80;99.90;;;;;;5091618;28;20171;-62
2024/02/29 00:37:04;;;;;;;13.87;10.80;;;7.80;99.90;;;;;;5091624;28;20192;-62
2024/02/29 00:39:30;;;;;;;11.33;9.43;;;7.90;99.90;;;;;;5073656;28;20787;-62
2024/02/29 00:41:55;;;;;;;11.37;7.90;;;7.90;99.90;;;;;;5091533;28;20528;-63
2024/02/29 00:44:21;;;;;;;14.00;10.47;;;7.90;99.90;;;;;;5091416;28;20255;-63
2024/02/29 00:46:46;;;;;;;19.33;11.53;;;7.90;99.90;;;;;;5091458;28;20555;-62
2024/02/29 00:49:16;;;;;;;13.57;9.30;;;7.90;99.90;;;;;;5091163;28;20196;-63
2024/02/29 00:51:42;;;;;;;15.35;10.80;;;7.90;99.90;;;;;;5091394;28;20193;-63
2024/02/29 00:54:08;;;;;;;13.20;9.97;;;7.90;99.90;;;;;;5091539;28;20169;-63
2024/02/29 00:56:34;;;;;;;14.50;9.35;;;7.70;99.90;;;;;;5091281;28;20418;-63
2024/02/29 00:58:59;;;;;;;12.77;10.43;;;7.60;99.90;;;;;;5091090;28;20181;-63
2024/02/29 01:01:25;;;;;;;17.23;11.17;;;7.50;99.90;;;;;;5091125;28;20204;-62
2024/02/29 01:03:51;;;;;;;14.10;9.40;;;7.50;99.90;;;;;;5091278;28;20411;-63
2024/02/29 01:06:16;;;;;;;15.90;11.63;;;7.50;99.90;;;;;;5091347;28;20176;-63
2024/02/29 01:08:42;;;;;;;15.37;10.80;;;7.60;99.90;;;;;;5090924;28;20203;-63
2024/02/29 01:11:08;;;;;;;13.50;10.00;;;7.70;99.90;;;;;;5091207;28;20319;-63
2024/02/29 01:13:33;;;;;;;16.93;11.17;;;7.80;99.90;;;;;;5091091;28;20165;-63
2024/02/29 01:15:59;;;;;;;14.80;10.43;;;7.70;99.90;;;;;;5091171;28;20179;-62
2024/02/29 01:18:24;;;;;;;13.47;11.20;;;7.60;99.90;;;;;;5091111;28;20180;-62
2024/02/29 01:20:50;;;;;;;14.63;10.13;;;7.50;99.90;;;;;;5091122;28;20215;-63
2024/02/29 01:23:16;;;;;;;15.20;9.47;;;7.60;99.90;;;;;;5091222;28;20169;-63
2024/02/29 01:25:41;;;;;;;13.93;10.57;;;7.70;99.90;;;;;;5091083;28;20638;-62
2024/02/29 01:28:07;;;;;;;16.33;12.00;;;7.70;99.90;;;;;;5090765;28;20212;-63
2024/02/29 01:30:32;;;;;;;16.13;11.03;;;7.70;99.90;;;;;;5090960;28;20200;-63
2024/02/29 01:32:58;;;;;;;12.03;9.00;;;7.60;99.90;;;;;;5091019;28;20175;-63
2024/02/29 01:35:24;;;;;;;13.93;9.50;;;7.70;99.90;;;;;;5091132;28;20203;-63
2024/02/29 01:37:49;;;;;;;19.67;10.90;;;7.80;99.90;;;;;;5090735;28;20167;-63
2024/02/29 01:40:18;;;;;;;18.77;10.53;;;7.80;99.90;;;;;;5093241;28;20183;-63
2024/02/29 01:42:44;;;;;;;19.50;11.70;;;7.70;99.90;;;;;;5094440;28;20429;-62
2024/02/29 01:45:11;;;;;;;16.90;9.90;;;7.60;99.90;;;;;;5094507;28;20178;-62
2024/02/29 01:47:37;;;;;;;18.58;11.90;;;7.60;99.90;;;;;;5094206;28;20202;-63
2024/02/29 01:50:03;;;;;;;13.63;10.23;;;7.40;99.90;;;;;;5094452;28;20235;-63
2024/02/29 01:52:30;;;;;;;12.40;10.32;;;7.50;99.90;;;;;;5094358;28;20569;-63
2024/02/29 01:54:56;;;;;;;11.25;9.15;;;7.50;99.90;;;;;;5094349;28;20161;-63
2024/02/29 01:57:23;;;;;;;12.33;9.77;;;7.50;99.90;;;;;;5093948;28;20183;-61
2024/02/29 01:59:49;;;;;;;22.95;11.57;;;7.60;99.90;;;;;;5094241;28;20211;-62
2024/02/29 02:02:15;;;;;;;17.73;10.90;;;7.70;99.90;;;;;;5100903;22;20233;-59
2024/02/29 02:04:41;;;;;;;16.83;8.93;;;7.70;99.90;;;;;;5074340;28;20176;-59
2024/02/29 02:07:08;;;;;;;15.80;9.73;;;7.80;99.90;;;;;;5074442;28;20166;-59
2024/02/29 02:09:35;;;;;;;13.77;10.35;;;7.80;99.90;;;;;;5073775;28;20193;-59
2024/02/29 02:12:01;;;;;;;10.60;8.70;;;7.70;99.90;;;;;;5074206;28;20221;-59
2024/02/29 02:14:26;;;;;;;10.45;9.20;;;7.60;99.90;;;;;;5074111;28;20169;-59
2024/02/29 02:16:52;;;;;;;11.00;8.40;;;7.50;99.90;;;;;;5074163;28;20226;-59
2024/02/29 02:19:18;;;;;;;16.33;8.50;;;7.30;99.90;;;;;;5074083;28;20185;-59
2024/02/29 02:21:43;;;;;;;16.40;9.37;;;7.20;99.90;;;;;;5073870;28;20204;-59
2024/02/29 02:24:09;;;;;;;10.87;8.40;;;7.20;99.90;;;;;;5074242;28;20222;-59
2024/02/29 02:26:35;;;;;;;9.73;7.67;;;7.20;99.90;;;;;;5073982;28;20192;-58
2024/02/29 02:29:03;;;;;;;12.43;9.27;;;7.40;99.90;;;;;;5073644;28;20471;-59
2024/02/29 02:31:29;;;;;;;13.60;8.55;;;7.50;99.90;;;;;;5073938;28;20208;-59
2024/02/29 02:33:55;;;;;;;13.05;8.20;;;7.50;99.90;;;;;;5073818;28;20170;-59
2024/02/29 02:36:21;;;;;;;11.57;9.60;;;7.60;99.90;;;;;;5073536;28;20190;-59
2024/02/29 02:38:47;;;;;;;12.13;8.93;;;7.50;99.90;;;;;;5073610;28;20165;-59
2024/02/29 02:41:13;;;;;;;17.05;9.23;;;7.50;99.90;;;;;;5073513;28;20197;-59
2024/02/29 02:43:38;;;;;;;12.40;9.60;;;7.40;99.90;;;;;;5073452;28;20179;-59
2024/02/29 02:46:04;;;;;;;13.50;10.10;;;7.20;99.90;;;;;;5073355;28;20407;-59
2024/02/29 02:48:30;;;;;;;11.70;10.00;;;7.20;99.90;;;;;;5073204;28;20406;-59
2024/02/29 02:50:55;;;;;;;16.70;10.17;;;7.30;99.90;;;;;;5072165;28;20224;-59
2024/02/29 02:53:21;;;;;;;15.43;9.37;;;7.40;99.90;;;;;;5073290;28;20184;-58
2024/02/29 02:55:47;;;;;;;14.80;9.50;;;7.40;99.90;;;;;;5073285;28;20172;-59
2024/02/29 02:58:12;;;;;;;14.13;9.50;;;7.40;99.90;;;;;;5073088;28;20164;-59
2024/02/29 03:00:38;;;;;;;19.50;10.60;;;7.40;99.90;;;;;;5073192;28;20700;-59
2024/02/29 03:03:04;;;;;;;17.90;9.23;;;7.30;99.90;;;;;;5073051;28;20220;-59
2024/02/29 03:05:30;;;;;;;17.63;9.20;;;7.20;99.90;;;;;;5073365;28;20693;-59
2024/02/29 03:07:55;;;;;;;17.63;9.63;;;7.10;99.90;;;;;;5072837;28;20231;-58
2024/02/29 03:10:21;;;;;;;15.03;11.13;;;7.00;99.90;;;;;;5072964;28;20239;-59
2024/02/29 03:12:48;;;;;;;13.88;9.88;;;7.00;99.90;;;;;;5072825;28;20192;-59
2024/02/29 03:15:15;;;;;;;12.93;8.40;;;6.90;99.90;;;;;;5072864;28;20180;-59
2024/02/29 03:17:40;;;;;;;14.10;10.02;;;6.90;99.90;;;;;;5072674;28;20633;-59
2024/02/29 03:20:12;;;;;;;11.37;8.40;;;6.80;99.90;;;;;;5072704;28;20207;-59
2024/02/29 03:22:40;;;;;;;15.95;10.85;;;6.70;99.90;;;;;;5072663;28;20433;-59
2024/02/29 03:25:07;;;;;;;11.30;8.35;;;6.90;99.90;;;;;;5072609;28;20246;-58
2024/02/29 03:27:32;;;;;;;12.25;8.27;;;6.90;99.90;;;;;;5071071;28;20187;-59
2024/02/29 03:30:02;;;;;;;23.27;11.93;;;6.90;99.90;;;;;;5072645;28;20276;-59
2024/02/29 03:32:28;;;;;;;13.32;9.52;;;6.90;99.90;;;;;;5072489;28;20438;-59
2024/02/29 03:34:53;;;;;;;14.03;9.90;;;6.80;99.90;;;;;;5072525;28;20166;-59
2024/02/29 03:37:19;;;;;;;15.10;9.40;;;6.70;99.90;;;;;;5072100;28;20167;-59
2024/02/29 03:39:44;;;;;;;15.67;9.27;;;6.60;99.90;;;;;;5072583;28;20640;-59
2024/02/29 03:42:11;;;;;;;11.83;7.57;;;6.70;99.90;;;;;;5072388;28;20193;-59
2024/02/29 03:44:37;;;;;;;11.82;8.18;;;6.60;99.90;;;;;;5072739;28;20197;-59
2024/02/29 03:47:04;;;;;;;16.30;8.88;;;6.50;99.90;;;;;;5072479;28;20543;-59
2024/02/29 03:49:30;;;;;;;17.13;8.75;;;6.40;99.90;;;;;;5072124;28;20205;-59
2024/02/29 03:51:55;;;;;;;9.00;7.30;;;6.20;99.70;;;;;;5072067;28;20618;-59
2024/02/29 03:54:21;;;;;;;19.13;10.17;;;6.00;99.80;;;;;;5072282;28;20176;-59
2024/02/29 03:56:47;;;;;;;18.80;9.80;;;5.90;99.70;;;;;;5072072;28;20166;-59
2024/02/29 03:59:12;;;;;;;11.50;8.57;;;5.90;99.80;;;;;;5071860;28;20207;-59
2024/02/29 04:01:38;;;;;;;13.03;8.53;;;5.90;99.50;;;;;;5071766;28;20253;-59
2024/02/29 04:04:05;;;;;;;13.77;9.03;;;5.90;99.60;;;;;;5071907;28;20592;-58
2024/02/29 04:06:31;;;;;;;10.02;7.07;;;6.00;99.90;;;;;;5072236;28;20173;-59
2024/02/29 04:08:56;;;;;;;21.10;8.90;;;6.00;99.80;;;;;;5071444;28;20551;-59
2024/02/29 04:11:22;;;;;;;12.67;9.13;;;6.00;99.80;;;;;;5072009;28;20191;-59
2024/02/29 04:13:47;;;;;;;12.63;7.20;;;5.90;99.80;;;;;;5071958;28;20174;-59
2024/02/29 04:16:13;;;;;;;15.83;8.73;;;6.00;99.70;;;;;;5071874;28;20255;-59
2024/02/29 04:18:39;;;;;;;12.90;8.90;;;6.00;99.50;;;;;;5071687;28;20186;-59
2024/02/29 04:21:05;;;;;;;10.48;8.00;;;6.10;99.70;;;;;;5071961;28;20665;-59
2024/02/29 04:23:31;;;;;;;12.40;8.40;;;6.00;99.50;;;;;;5071855;28;20259;-59
2024/02/29 04:25:56;;;;;;;12.80;8.67;;;6.00;99.40;;;;;;5072070;28;20452;-59
2024/02/29 04:28:22;;;;;;;15.27;8.53;;;6.00;99.40;;;;;;5071482;28;20179;-59
2024/02/29 04:30:48;;;;;;;12.23;8.00;;;6.10;99.30;;;;;;5071605;28;20198;-58
2024/02/29 04:33:13;;;;;;;8.80;7.27;;;6.20;99.00;;;;;;5071879;28;20625;-58
2024/02/29 04:35:39;;;;;;;15.70;7.60;;;6.30;98.80;;;;;;5071841;28;20173;-59
2024/02/29 04:38:05;;;;;;;11.20;7.07;;;6.20;98.80;;;;;;5071504;28;20217;-59
2024/02/29 04:40:31;;;;;;;16.67;10.18;;;6.10;98.90;;;;;;5071317;28;20498;-59
2024/02/29 04:42:57;;;;;;;9.13;6.60;;;6.00;99.10;;;;;;5071172;28;20291;-59
2024/02/29 04:45:26;;;;;;;13.63;7.90;;;6.00;99.20;;;;;;5071645;28;20182;-59
2024/02/29 04:47:53;;;;;;;13.93;9.13;;;5.80;99.10;;;;;;5071251;28;20208;-59
2024/02/29 04:50:19;;;;;;;12.73;6.72;;;5.80;99.20;;;;;;5071374;28;20294;-59
2024/02/29 04:52:45;;;;;;;10.60;6.70;;;5.80;99.60;;;;;;5071650;28;20232;-59
2024/02/29 04:55:11;;;;;;;14.55;8.70;;;5.90;99.10;;;;;;5071437;28;20228;-59
2024/02/29 04:57:36;;;;;;;15.13;8.60;;;5.80;99.00;;;;;;5071174;28;20174;-59
2024/02/29 05:00:03;;;;;;;10.90;7.37;;;5.80;99.10;;;;;;5071443;28;20177;-59
2024/02/29 05:02:28;;;;;;;10.13;7.75;;;5.80;99.10;;;;;;5071030;28;20640;-58
2024/02/29 05:04:54;;;;;;;14.73;8.97;;;5.80;99.10;;;;;;5071342;28;20286;-59
2024/02/29 05:07:21;;;;;;;12.10;8.37;;;5.70;99.00;;;;;;5070945;28;20203;-58
2024/02/29 05:09:46;;;;;;;21.05;7.93;;;5.60;99.00;;;;;;5071152;28;20616;-59
2024/02/29 05:12:12;;;;;;;14.60;8.17;;;5.40;99.20;;;;;;5071141;28;20288;-59
2024/02/29 05:14:38;;;;;;;12.30;7.20;;;5.20;99.40;;;;;;5072363;28;20178;-59
2024/02/29 05:17:04;;;;;;;14.77;8.07;;;5.00;99.70;;;;;;5074907;28;20174;-59
2024/02/29 05:19:30;;;;;;;13.27;8.57;;;5.00;99.90;;;;;;5074677;28;20170;-59
2024/02/29 05:21:55;;;;;;;10.23;8.00;;;5.00;99.90;;;;;;5074618;28;20193;-59
2024/02/29 05:24:21;;;;;;;14.80;9.07;;;4.90;99.90;;;;;;5074584;28;20475;-59
2024/02/29 05:26:48;;;;;;;12.87;7.80;;;5.00;99.80;;;;;;5074740;28;20415;-58
2024/02/29 05:29:13;;;;;;;11.95;8.38;;;5.00;99.60;;;;;;5074551;28;20217;-59
2024/02/29 05:31:39;;;;;;;12.73;7.97;;;5.10;99.40;;;;;;5074667;28;20197;-58
2024/02/29 05:34:05;;;;;;;12.87;7.70;;;5.00;99.30;;;;;;5074596;28;20535;-59
2024/02/29 05:36:31;;;;;;;10.93;7.70;;;4.90;99.40;;;;;;5074659;28;20444;-58
2024/02/29 05:38:57;;;;;;;15.88;8.18;;;4.70;99.70;;;;;;5074252;28;20708;-58
2024/02/29 05:41:23;;;;;;;11.60;7.87;;;4.60;99.90;;;;;;5074699;28;20286;-58
2024/02/29 05:43:50;;;;;;;9.23;7.77;;;4.50;99.90;;;;;;5074424;28;20180;-58
2024/02/29 05:46:15;;;;;;;14.40;9.50;;;4.60;99.90;;;;;;5074347;28;20171;-59
2024/02/29 05:48:41;;;;;;;15.60;8.73;;;4.60;99.90;;;;;;5074120;28;20643;-58
2024/02/29 05:51:11;;;;;;;20.40;11.00;;;4.40;99.90;;;;;;5074003;28;20209;-59
2024/02/29 05:53:36;;;;;;;14.70;9.00;;;4.30;99.90;;;;;;5073953;28;20173;-59
2024/02/29 05:56:02;;;;;;;14.47;9.03;;;4.40;99.90;;;;;;5074159;28;20271;-58
2024/02/29 05:58:30;;;;;;;11.68;7.95;;;4.50;99.90;;;;;;5073798;28;20223;-58
2024/02/29 06:00:56;;;;;;;13.48;8.63;;;4.50;99.90;;;;;;5073801;28;20194;-58
2024/02/29 06:03:22;;;;;;;16.85;10.07;;;4.50;99.90;;;;;;5074092;28;20173;-58
2024/02/29 06:05:48;;;;;;;10.60;7.23;;;4.50;99.90;;;;;;5073873;28;20677;-58
2024/02/29 06:08:14;;;;;;;14.70;7.80;;;4.50;99.90;;;;;;5073688;28;20371;-59
2024/02/29 06:10:40;;;;;;;12.67;8.27;;;4.40;99.90;;;;;;5073777;28;20292;-58
2024/02/29 06:13:06;;;;;;;13.03;7.50;;;4.30;99.90;;;;;;5074012;28;20412;-59
2024/02/29 06:15:32;;;;;;;15.53;7.97;;;4.30;99.90;;;;;;5073846;28;20170;-58
2024/02/29 06:17:57;;;;;;;15.88;8.50;;;4.40;99.90;;;;;;5073900;28;20649;-59
2024/02/29 06:20:23;;;;;;;17.90;7.57;;;4.50;99.90;;;;;;5073807;28;20203;-58
2024/02/29 06:22:49;;;;;;;13.87;10.00;;;4.50;99.90;;;;;;5073478;28;20190;-59
2024/02/29 06:25:14;;;;;;;17.23;10.80;;;4.50;99.90;;;;;;5073653;28;20181;-59
2024/02/29 06:27:40;;;;;;;16.90;9.17;;;4.40;99.90;;;;;;5073196;28;20173;-58
2024/02/29 06:30:09;;;;;;;14.00;8.87;;;4.50;99.90;;;;;;5073491;28;20606;-59
2024/02/29 06:32:35;;;;;;;16.80;10.00;;;4.50;99.90;;;;;;5073387;28;20193;-59
2024/02/29 06:35:01;;;;;;;16.80;10.40;;;4.60;99.90;;;;;;5073470;28;20184;-59
2024/02/29 06:37:26;;;;;;;16.00;10.30;;;4.70;99.90;;;;;;5073288;28;21165;-58
2024/02/29 06:39:54;;;;;;;17.00;8.70;;;4.70;99.90;;;;;;5073436;28;20906;-59
2024/02/29 06:42:20;;;;;;;15.95;8.77;;;4.70;99.90;;;;;;5073420;28;20279;-59
2024/02/29 06:44:45;;;;;;;14.20;8.57;;;4.80;99.90;;;;;;5073474;28;20265;-58
2024/02/29 06:47:11;;;;;;;18.20;10.63;;;5.00;99.80;;;;;;5073573;28;20474;-58
2024/02/29 06:49:36;;;;;;;20.20;9.47;;;5.10;99.60;;;;;;5072759;28;20218;-59
2024/02/29 06:52:02;;;;;;;15.83;11.10;;;5.20;99.40;;;;;;5071989;28;20280;-59
2024/02/29 06:54:28;;;;;;;11.03;7.37;;;5.20;99.50;;;;;;5073116;28;20637;-58
2024/02/29 06:56:53;;;;;;;14.33;9.40;;;5.30;99.70;;;;;;5072710;28;20249;-59
2024/02/29 06:59:19;;;;;;;16.10;9.50;;;5.40;99.70;;;;;;5072902;28;20193;-59
2024/02/29 07:01:45;;;;;;;15.33;9.33;;;5.50;99.60;;;;;;5072648;28;20231;-59
2024/02/29 07:04:10;;;;;;;16.27;9.10;;;5.60;99.60;;;;;;5072889;28;20197;-59
2024/02/29 07:06:36;;;;;;;11.20;8.27;;;5.60;99.40;;;;;;5072616;28;20197;-59
2024/02/29 07:09:02;;;;;;;12.50;8.77;;;5.70;99.20;;;;;;5072778;28;20176;-59
2024/02/29 07:11:30;;;;;;;16.52;8.95;;;5.80;98.90;;;;;;5072698;28;20214;-59
2024/02/29 07:13:57;;;;;;;23.67;11.02;;;5.80;98.50;;;;;;5072749;28;20212;-59
2024/02/29 07:16:22;;;;;;;10.98;9.02;;;5.80;98.50;;;;;;5072770;28;20164;-59
2024/02/29 07:18:48;;;;;;;15.30;8.63;;;5.80;98.40;;;;;;5072309;28;20180;-59
2024/02/29 07:21:14;;;;;;;20.17;10.17;;;6.00;98.40;;;;;;5072729;28;20231;-58
2024/02/29 07:23:39;;;;;;;13.13;9.27;;;6.10;98.20;;;;;;5072486;28;20172;-60
2024/02/29 07:26:05;;;;;;;17.83;9.80;;;6.20;98.10;;;;;;5072252;28;20207;-59
2024/02/29 07:28:31;;;;;;;16.83;9.20;;;6.40;98.10;;;;;;5072106;28;20188;-58
2024/02/29 07:30:56;;;;;;;12.47;8.67;;;6.70;98.00;;;;;;5072140;28;20974;-59
2024/02/29 07:33:24;;;;;;;14.07;8.67;;;6.80;97.60;;;;;;5072141;28;20608;-59
2024/02/29 07:35:49;;;;;;;17.95;8.45;;;6.90;97.00;;;;;;5072097;28;20193;-59
2024/02/29 07:38:15;;;;;;;12.10;9.17;;;7.00;96.90;;;;;;5071632;28;20197;-58
2024/02/29 07:40:41;;;;;;;15.03;10.80;;;7.10;96.70;;;;;;5072148;28;20266;-59
2024/02/29 07:43:06;;;;;;;15.30;9.80;;;7.10;96.60;;;;;;5072238;28;20586;-59
2024/02/29 07:45:32;;;;;;;14.10;9.50;;;7.10;96.40;;;;;;5072097;28;20639;-59
2024/02/29 07:47:58;;;;;;;11.87;9.13;;;7.20;96.30;;;;;;5071656;28;20181;-59
2024/02/29 07:50:23;;;;;;;19.10;10.20;;;7.10;95.90;;;;;;5071977;28;20702;-59
2024/02/29 07:52:49;;;;;;;14.00;10.60;;;7.10;96.10;;;;;;5072055;28;20189;-59
2024/02/29 07:55:16;;;;;;;12.30;8.53;;;7.20;96.40;;;;;;5072142;28;20166;-58
2024/02/29 07:57:43;;;;;;;14.27;8.93;;;7.30;96.10;;;;;;5071085;28;20166;-59
2024/02/29 08:00:12;;;;;;;15.85;9.77;;;7.30;95.80;;;;;;5071914;28;20181;-59
2024/02/29 08:02:42;;;;;;;10.48;7.60;;;7.30;96.00;;;;;;5093395;22;20364;-64
2024/02/29 08:05:08;;;;;;;10.60;7.75;;;7.30;96.00;;;;;;5071710;28;20185;-63
2024/02/29 08:07:35;;;;;;;16.30;9.85;;;7.30;96.40;;;;;;5071356;28;20173;-64
2024/02/29 08:10:01;;;;;;;12.55;9.10;;;7.50;96.10;;;;;;5071501;28;20208;-64
2024/02/29 08:12:27;;;;;;;15.85;9.10;;;7.50;96.10;;;;;;5071535;28;20192;-64
2024/02/29 08:14:52;;;;;;;12.43;9.13;;;7.50;96.20;;;;;;5070837;28;20559;-64
2024/02/29 08:17:18;;;;;;;14.97;8.87;;;7.60;96.00;;;;;;5053590;28;20181;-64
2024/02/29 08:19:44;;;;;;;13.70;9.50;;;7.70;96.10;;;;;;5071595;28;20793;-64
2024/02/29 08:22:09;;;;;;;14.43;10.70;;;7.80;96.10;;;;;;5071423;28;20193;-64
2024/02/29 08:24:35;;;;;;;14.03;8.87;;;7.90;95.80;;;;;;5071485;28;20201;-64
2024/02/29 08:27:00;;;;;;;15.03;10.70;;;8.00;95.90;;;;;;5071380;28;20181;-64
2024/02/29 08:29:26;;;;;;;13.93;10.00;;;8.20;95.90;;;;;;5071220;28;20269;-64
2024/02/29 08:31:52;;;;;;;14.70;9.77;;;8.30;95.90;;;;;;5071416;28;20595;-64
2024/02/29 08:34:17;;;;;;;15.67;10.70;;;8.20;95.40;;;;;;5071345;28;20227;-63
2024/02/29 08:36:43;;;;;;;12.73;9.53;;;8.20;95.20;;;;;;5070771;28;20181;-64
2024/02/29 08:39:08;;;;;;;14.17;8.90;;;8.10;95.20;;;;;;5071053;28;20552;-64
2024/02/29 08:41:34;;;;;;;15.27;9.53;;;8.10;95.40;;;;;;5071329;28;20197;-64
2024/02/29 08:44:00;;;;;;;15.10;9.23;;;8.10;95.60;;;;;;5071361;28;20169;-64
2024/02/29 08:46:25;;;;;;;12.10;9.30;;;8.30;96.00;;;;;;5071313;28;20174;-64
2024/02/29 08:48:51;;;;;;;15.70;10.70;;;8.50;95.90;;;;;;5072952;28;20170;-64
2024/02/29 08:51:17;;;;;;;15.33;9.70;;;8.70;95.10;;;;;;5075573;28;20205;-64
2024/02/29 08:53:42;;;;;;;17.10;9.67;;;8.80;94.80;;;;;;5075353;28;20169;-64
2024/02/29 08:56:08;;;;;;;17.33;10.30;;;8.90;94.70;;;;;;5075193;28;20833;-64
2024/02/29 08:58:33;;;;;;;13.60;7.80;;;8.90;94.40;;;;;;5074962;28;20166;-64
2024/02/29 09:01:00;;;;;;;12.80;8.10;;;8.80;94.10;;;;;;5074703;28;20173;-64
2024/02/29 09:03:26;;;;;;;17.38;9.27;;;8.80;94.00;;;;;;5074870;28;20197;-64
2024/02/29 09:05:51;;;;;;;18.90;9.63;;;8.90;94.00;;;;;;5075116;28;20200;-64
2024/02/29 09:08:17;;;;;;;11.50;8.50;;;8.90;93.60;;;;;;5075420;28;20174;-64
2024/02/29 09:10:43;;;;;;;10.67;8.20;;;9.00;93.70;;;;;;5074634;28;20205;-64
2024/02/29 09:13:09;;;;;;;14.33;8.43;;;9.00;93.10;;;;;;5074805;28;20189;-64
2024/02/29 09:15:34;;;;;;;9.93;7.23;;;9.00;93.10;;;;;;5074911;28;20193;-65
2024/02/29 09:18:03;;;;;;;9.77;6.80;;;9.10;93.50;;;;;;5074675;28;20174;-64
2024/02/29 09:20:29;;;;;;;10.80;8.57;;;9.00;93.40;;;;;;5074286;28;20166;-65
2024/02/29 09:22:55;;;;;;;12.33;6.53;;;9.00;92.80;;;;;;5074345;28;20251;-65
2024/02/29 09:25:21;;;;;;;10.55;6.60;;;9.00;92.90;;;;;;5074692;28;20232;-65
2024/02/29 09:27:47;;;;;;;11.10;7.53;;;9.10;93.00;;;;;;5074354;28;20201;-64
2024/02/29 09:30:13;;;;;;;15.53;8.77;;;9.20;93.50;;;;;;5074661;28;20220;-64
2024/02/29 09:32:39;;;;;;;20.13;8.88;;;9.30;92.70;;;;;;5074420;28;20427;-64
2024/02/29 09:35:05;;;;;;;10.73;6.88;;;9.40;91.90;;;;;;5074448;28;20202;-64
2024/02/29 09:37:31;;;;;;;16.27;10.15;;;9.40;91.60;;;;;;5074324;28;20554;-64
2024/02/29 09:39:57;;;;;;;14.30;8.50;;;9.30;91.60;;;;;;5074396;28;20248;-64
2024/02/29 09:42:25;;;;;;;11.97;7.80;;;9.40;91.80;;;;;;5074111;28;20204;-64
2024/02/29 09:44:51;;;;;;;17.40;9.20;;;9.50;91.70;;;;;;5074105;28;20230;-64
2024/02/29 09:47:22;;;;;;;17.05;8.00;;;9.60;92.30;;;;;;5074272;28;20238;-64
2024/02/29 09:49:49;;;;;;;13.00;8.45;;;9.60;91.70;;;;;;5073584;28;20582;-64
2024/02/29 09:52:14;;;;;;;9.57;7.57;;;9.50;91.70;;;;;;5073765;28;20196;-64
2024/02/29 09:54:40;;;;;;;12.73;7.20;;;9.60;91.90;;;;;;5074010;28;20170;-64
2024/02/29 09:57:12;;;;;;;13.53;7.03;;;9.70;91.80;;;;;;5073932;28;20427;-64
2024/02/29 09:59:40;;;;;;;15.60;8.30;;;9.80;91.50;;;;;;5073370;28;20416;-64
2024/02/29 10:02:06;;;;;;;13.93;6.87;;;9.80;91.90;;;;;;5073608;28;20221;-64
2024/02/29 10:04:35;;;;;;;15.43;8.43;;;10.20;90.50;;;;;;5073746;28;20408;-64
2024/02/29 10:07:00;;;;;;;14.60;7.50;;;10.20;90.40;;;;;;5073862;28;20419;-64
2024/02/29 10:09:30;;;;;;;13.77;8.10;;;10.40;90.00;;;;;;5073689;28;20826;-64
2024/02/29 10:11:56;;;;;;;13.98;6.90;;;10.40;88.60;;;;;;5073779;28;20567;-64
2024/02/29 10:14:26;;;;;;;12.70;7.53;;;10.50;89.20;;;;;;5073950;28;20177;-64
2024/02/29 10:16:52;;;;;;;15.70;7.70;;;10.50;88.30;;;;;;5073676;28;20401;-64
2024/02/29 10:19:22;;;;;;;12.13;8.20;;;10.70;88.80;;;;;;5073523;28;20716;-64
2024/02/29 10:21:48;;;;;;;11.90;7.30;;;10.80;88.50;;;;;;5073770;28;20531;-64
2024/02/29 10:24:14;;;;;;;13.10;6.77;;;10.90;87.50;;;;;;5073613;28;20431;-64
2024/02/29 10:26:39;;;;;;;10.40;7.17;;;11.10;87.70;;;;;;5073592;28;20404;-64
2024/02/29 10:29:09;;;;;;;11.33;6.53;;;11.10;87.50;;;;;;5073392;28;20220;-64
2024/02/29 10:31:35;;;;;;;11.10;7.00;;;11.20;86.20;;;;;;5073404;28;20178;-64
2024/02/29 10:34:00;;;;;;;11.90;7.60;;;11.20;86.60;;;;;;5073408;28;20406;-64
2024/02/29 10:36:26;;;;;;;10.97;7.17;;;10.90;85.50;;;;;;5073325;28;20408;-64
2024/02/29 10:38:52;;;;;;;15.07;8.20;;;10.90;86.50;;;;;;5073345;28;20685;-65
2024/02/29 10:41:19;;;;;;;8.87;6.40;;;11.00;87.70;;;;;;5073335;28;20644;-64
2024/02/29 10:43:49;;;;;;;8.20;5.43;;;11.30;86.00;;;;;;5073290;28;20561;-64
2024/02/29 10:46:19;;;;;;;11.67;6.90;;;11.40;85.10;;;;;;5073179;28;20407;-64
2024/02/29 10:49:01;;;;;;;8.67;6.50;;;11.50;85.30;;;;;;5072487;28;20403;-64
2024/02/29 10:51:36;;;;;;;11.63;6.43;;;11.50;84.80;;;;;;5072989;28;20428;-64
2024/02/29 10:54:26;;;;;;;9.67;6.83;;;11.60;85.40;;;;;;5073001;28;20406;-64
2024/02/29 10:56:56;;;;;;;9.87;7.07;;;11.90;84.50;;;;;;5072922;28;20452;-64
2024/02/29 10:59:23;;;;;;;11.60;7.43;;;12.10;83.50;;;;;;5072754;28;20404;-64
2024/02/29 11:01:49;;;;;;;12.17;6.27;;;12.30;82.90;;;;;;5072685;28;20843;-64
2024/02/29 11:04:15;;;;;;;10.33;6.40;;;12.50;82.50;;;;;;5072828;28;20423;-64
2024/02/29 11:06:48;;;;;;;7.17;6.17;;;12.90;82.60;;;;;;5073156;28;20399;-64
2024/02/29 11:09:25;;;;;;;9.37;7.50;;;13.30;81.50;;;;;;5072446;28;20415;-64
2024/02/29 11:12:08;;;;;;;9.97;6.77;;;13.10;78.10;;;;;;5071581;28;20435;-64
2024/02/29 11:14:37;;;;;;;9.63;7.17;;;12.70;78.20;;;;;;5072633;28;20906;-64
2024/02/29 11:17:05;;;;;;;12.63;8.90;;;12.10;79.90;;;;;;5072475;28;20400;-64
2024/02/29 11:19:32;;;;;;;7.77;5.90;;;11.50;81.10;;;;;;5072184;28;20430;-64
2024/02/29 11:22:14;;;;;;;8.10;7.37;;;11.00;82.60;;;;;;5072523;28;20811;-64
2024/02/29 11:24:43;;;;;;;13.23;7.30;;;10.50;84.30;;;;;;5072421;28;20427;-64
2024/02/29 11:27:12;;;;;;;12.23;7.67;;;10.50;85.90;;;;;;5072293;28;20408;-64
2024/02/29 11:29:42;;;;;;;9.97;6.80;;;10.60;85.30;;;;;;5071955;28;20474;-64
2024/02/29 11:32:07;;;;;;;9.87;6.57;;;10.70;85.40;;;;;;5072029;28;20439;-64
2024/02/29 11:34:33;;;;;;;12.20;9.03;;;10.90;85.10;;;;;;5072362;28;20404;-65
2024/02/29 11:36:59;;;;;;;11.27;7.77;;;11.20;85.30;;;;;;5072275;28;20693;-64
2024/02/29 11:39:24;;;;;;;11.43;7.37;;;11.30;83.50;;;;;;5072085;28;20170;-64
2024/02/29 11:42:03;;;;;;;13.50;8.73;;;11.30;83.70;;;;;;5072455;28;20189;-64
2024/02/29 11:44:35;;;;;;;11.47;7.70;;;11.50;84.40;;;;;;5072005;28;20646;-64
2024/02/29 11:47:02;;;;;;;9.23;6.27;;;11.60;83.70;;;;;;5072139;28;20404;-64
2024/02/29 11:49:27;;;;;;;10.33;6.60;;;11.80;83.90;;;;;;5071807;28;20479;-64
2024/02/29 11:51:54;;;;;;;11.40;6.77;;;11.70;83.00;;;;;;5071976;28;20474;-64
2024/02/29 11:54:20;;;;;;;9.93;7.47;;;11.60;82.70;;;;;;5071954;28;20219;-64
2024/02/29 11:56:47;;;;;;;7.03;5.40;;;11.70;83.20;;;;;;5071749;28;20407;-64
2024/02/29 11:59:15;;;;;;;11.10;7.00;;;11.50;83.90;;;;;;5071892;28;20411;-64
2024/02/29 12:01:42;;;;;;;9.60;6.60;;;11.40;84.30;;;;;;5053590;28;20526;-64
2024/02/29 12:04:07;;;;;;;6.80;6.10;;;11.50;84.50;;;;;;5071882;28;20408;-64
2024/02/29 12:06:35;;;;;;;11.70;7.20;;;11.40;84.90;;;;;;5071820;28;20817;-64
2024/02/29 12:09:01;;;;;;;14.10;6.50;;;11.20;85.10;;;;;;5071449;28;20728;-64
2024/02/29 12:11:28;;;;;;;10.50;5.97;;;11.20;86.00;;;;;;5071570;28;20519;-64
2024/02/29 12:13:54;;;;;;;12.80;6.43;;;11.40;85.80;;;;;;5071578;28;20411;-64
2024/02/29 12:16:20;;;;;;;10.60;6.23;;;11.70;85.10;;;;;;5054129;28;20777;-64
2024/02/29 12:18:46;;;;;;;11.77;6.40;;;11.80;83.70;;;;;;5071496;28;20415;-64
2024/02/29 12:21:11;;;;;;;10.87;7.57;;;11.60;84.40;;;;;;5071504;28;20177;-64
2024/02/29 12:23:39;;;;;;;11.97;7.63;;;11.60;84.60;;;;;;5071239;28;20192;-64
2024/02/29 12:26:13;;;;;;;13.10;7.03;;;11.80;84.60;;;;;;5071403;28;20407;-64
2024/02/29 12:28:39;;;;;;;10.30;6.10;;;12.00;83.20;;;;;;5071254;28;20434;-64
2024/02/29 12:31:06;;;;;;;11.10;6.40;;;12.00;84.30;;;;;;5071466;28;20777;-64
2024/02/29 12:33:36;;;;;;;8.97;5.40;;;12.10;84.60;;;;;;5071325;28;20399;-64
2024/02/29 12:36:02;;;;;;;11.03;7.47;;;12.10;83.70;;;;;;5071393;28;20413;-64
2024/02/29 12:38:30;;;;;;;10.40;6.30;;;11.90;83.50;;;;;;5071132;28;20411;-64